createdAt,value
2018-09-13T04:23:57.694Z,0
2018-09-13T04:24:58.284Z,0
2018-09-13T04:25:58.861Z,0
2018-09-13T04:26:59.436Z,0
2018-09-13T04:28:00.027Z,0
2018-09-13T04:29:00.600Z,0
2018-09-13T04:30:01.177Z,0
2018-09-13T04:31:01.751Z,0
2018-09-13T04:32:02.326Z,0
2018-09-13T04:33:02.902Z,0
2018-09-13T04:34:03.478Z,0
2018-09-13T04:35:04.055Z,0
2018-09-13T04:36:04.717Z,0
2018-09-13T04:37:05.205Z,0
2018-09-13T04:38:05.781Z,0
2018-09-13T04:39:06.357Z,0
2018-09-13T04:40:06.932Z,0
2018-09-13T04:41:07.506Z,0
2018-09-13T04:42:08.086Z,0
2018-09-13T04:43:08.659Z,0
2018-09-13T04:44:09.234Z,0
2018-09-13T04:45:09.826Z,0
2018-09-13T04:46:10.416Z,0
2018-09-13T04:47:10.991Z,0
2018-09-13T04:48:11.589Z,0
2018-09-13T04:49:12.187Z,0
2018-09-13T04:50:12.720Z,0
2018-09-13T04:51:13.295Z,0
2018-09-13T04:52:13.868Z,0
2018-09-13T04:53:14.448Z,0
2018-09-13T04:54:15.021Z,0
2018-09-13T04:55:15.596Z,0
2018-09-13T04:56:16.171Z,0
2018-09-13T04:57:16.748Z,0
2018-09-13T04:58:17.337Z,0
2018-09-13T04:59:17.928Z,0
2018-09-13T05:00:18.627Z,0
2018-09-13T05:01:19.096Z,0
2018-09-13T05:02:19.672Z,0
2018-09-13T05:03:20.247Z,0
2018-09-13T05:04:20.822Z,0
2018-09-13T05:05:21.447Z,0
2018-09-13T05:06:22.024Z,0
2018-09-13T05:07:22.612Z,0
2018-09-13T05:08:23.189Z,0
2018-09-13T05:09:23.767Z,0
2018-09-13T05:10:24.340Z,0
2018-09-13T05:11:24.912Z,0
2018-09-13T05:12:25.501Z,0
2018-09-13T05:13:26.077Z,0
2018-09-13T05:14:26.652Z,0
2018-09-13T05:15:27.227Z,0
2018-09-13T05:16:27.801Z,0
2018-09-13T05:17:28.376Z,0
2018-09-13T05:18:28.950Z,0
2018-09-13T05:19:29.528Z,0
2018-09-13T05:20:30.101Z,0
2018-09-13T05:21:30.676Z,0
2018-09-13T05:22:31.252Z,0
2018-09-13T05:23:31.827Z,0
2018-09-13T05:24:32.402Z,0
2018-09-13T05:25:32.977Z,0
2018-09-13T05:26:33.553Z,0
2018-09-13T05:27:34.142Z,0
2018-09-13T05:28:34.724Z,0
2018-09-13T05:29:35.294Z,0
2018-09-13T05:30:35.883Z,0
2018-09-13T05:31:36.474Z,0
2018-09-13T05:32:37.033Z,0
2018-09-13T05:33:37.609Z,0
2018-09-13T05:34:38.185Z,0
2018-09-13T05:35:38.759Z,0
2018-09-13T05:36:39.339Z,0
2018-09-13T05:37:39.912Z,0
2018-09-13T05:38:40.495Z,0
2018-09-13T05:39:41.063Z,0
2018-09-13T05:40:41.637Z,0
2018-09-13T05:41:42.214Z,0
2018-09-13T05:42:42.791Z,0
2018-09-13T05:43:43.367Z,0
2018-09-13T05:44:43.980Z,0
2018-09-13T05:45:44.549Z,0
2018-09-13T05:46:45.110Z,0
2018-09-13T05:47:45.684Z,0
2018-09-13T05:48:46.272Z,0
2018-09-13T05:49:46.848Z,0
2018-09-13T05:50:47.423Z,0
2018-09-13T05:51:48.003Z,0
2018-09-13T05:52:48.580Z,0
2018-09-13T05:53:49.175Z,0
2018-09-13T05:54:49.747Z,0
2018-09-13T05:55:50.335Z,0
2018-09-13T05:56:50.913Z,0
2018-09-13T05:57:51.501Z,0
2018-09-13T05:58:52.078Z,0
2018-09-13T05:59:52.653Z,0
2018-09-13T06:00:53.227Z,0
2018-09-13T06:01:53.805Z,0
2018-09-13T06:02:54.380Z,0
2018-09-13T06:03:54.956Z,0
2018-09-13T06:04:55.544Z,0
2018-09-13T06:05:56.120Z,0
2018-09-13T06:06:56.696Z,0
2018-09-13T06:07:57.299Z,0
2018-09-13T06:08:57.849Z,0
2018-09-13T06:09:58.424Z,0
2018-09-13T06:10:58.999Z,0
2018-09-13T06:11:59.574Z,0
2018-09-13T06:13:00.150Z,0
2018-09-13T06:14:00.739Z,0
2018-09-13T06:15:01.313Z,0
2018-09-13T06:16:01.889Z,0
2018-09-13T06:17:02.466Z,0
2018-09-13T06:18:03.049Z,0
2018-09-13T06:19:03.620Z,0
2018-09-13T06:20:04.211Z,0
2018-09-13T06:21:04.787Z,0
2018-09-13T06:22:05.362Z,0
2018-09-13T06:23:05.938Z,0
2018-09-13T06:24:06.518Z,0
2018-09-13T06:25:07.091Z,0
2018-09-13T06:26:07.766Z,0
2018-09-13T06:27:08.357Z,0
2018-09-13T06:28:08.947Z,0
2018-09-13T06:29:09.526Z,5
2018-09-13T06:30:10.103Z,5
2018-09-13T06:31:10.680Z,5
2018-09-13T06:32:11.258Z,5
2018-09-13T06:33:11.834Z,5
2018-09-13T06:34:12.411Z,5
2018-09-13T06:35:12.989Z,5
2018-09-13T06:36:13.600Z,5
2018-09-13T06:37:14.144Z,5
2018-09-13T06:38:14.759Z,5
2018-09-13T06:39:15.297Z,5
2018-09-13T06:40:15.874Z,5
2018-09-13T06:41:16.452Z,5
2018-09-13T06:42:17.053Z,5
2018-09-13T06:43:17.606Z,5
2018-09-13T06:44:18.184Z,5
2018-09-13T06:45:18.773Z,5
2018-09-13T06:46:19.353Z,5
2018-09-13T06:47:19.928Z,5
2018-09-13T06:48:20.505Z,5
2018-09-13T06:49:21.083Z,10
2018-09-13T06:50:21.662Z,10
2018-09-13T06:51:22.240Z,10
2018-09-13T06:52:22.819Z,10
2018-09-13T06:53:23.399Z,10
2018-09-13T06:54:23.989Z,10
2018-09-13T06:55:24.566Z,10
2018-09-13T06:56:25.146Z,10
2018-09-13T06:57:25.723Z,10
2018-09-13T06:58:26.302Z,10
2018-09-13T06:59:26.895Z,10
2018-09-13T07:00:27.475Z,10
2018-09-13T07:01:28.053Z,10
2018-09-13T07:02:28.686Z,10
2018-09-13T07:03:29.217Z,10
2018-09-13T07:04:29.798Z,10
2018-09-13T07:05:30.375Z,10
2018-09-13T07:06:30.953Z,10
2018-09-13T07:07:31.532Z,10
2018-09-13T07:08:32.112Z,10
2018-09-13T07:09:32.689Z,10
2018-09-13T07:10:33.266Z,10
2018-09-13T07:11:33.846Z,15
2018-09-13T07:12:34.438Z,15
2018-09-13T07:13:35.015Z,15
2018-09-13T07:14:35.595Z,15
2018-09-13T07:15:36.175Z,15
2018-09-13T07:16:36.767Z,15
2018-09-13T07:17:37.344Z,15
2018-09-13T07:18:37.937Z,15
2018-09-13T07:19:38.516Z,15
2018-09-13T07:20:39.093Z,15
2018-09-13T07:21:39.673Z,15
2018-09-13T07:22:40.251Z,15
2018-09-13T07:23:40.933Z,15
2018-09-13T07:24:41.524Z,15
2018-09-13T07:25:41.997Z,15
2018-09-13T07:26:42.574Z,15
2018-09-13T07:27:43.168Z,15
2018-09-13T07:28:43.744Z,15
2018-09-13T07:29:44.325Z,15
2018-09-13T07:30:44.944Z,15
2018-09-13T07:31:45.484Z,15
2018-09-13T07:32:46.062Z,15
2018-09-13T07:33:46.655Z,15
2018-09-13T07:34:47.233Z,15
2018-09-13T07:35:47.811Z,15
2018-09-13T07:36:48.466Z,15
2018-09-13T07:37:48.978Z,15
2018-09-13T07:38:49.555Z,15
2018-09-13T07:39:50.134Z,15
2018-09-13T07:40:50.713Z,10
2018-09-13T07:41:51.305Z,10
2018-09-13T07:42:51.957Z,10
2018-09-13T07:43:52.466Z,10
2018-09-13T07:44:53.060Z,10
2018-09-13T07:45:53.649Z,10
2018-09-13T07:46:54.243Z,10
2018-09-13T07:47:54.835Z,10
2018-09-13T07:48:55.449Z,10
2018-09-13T07:49:56.150Z,10
2018-09-13T07:50:56.590Z,15
2018-09-13T07:51:57.167Z,15
2018-09-13T07:52:57.756Z,15
2018-09-13T07:53:58.339Z,15
2018-09-13T07:54:58.914Z,15
2018-09-13T07:55:59.494Z,15
2018-09-13T07:57:00.088Z,15
2018-09-13T07:58:00.664Z,15
2018-09-13T07:59:01.242Z,15
2018-09-13T08:00:01.822Z,15
2018-09-13T08:01:02.399Z,15
2018-09-13T08:02:02.979Z,15
2018-09-13T08:03:03.558Z,15
2018-09-13T08:04:04.136Z,15
2018-09-13T08:05:04.746Z,15
2018-09-13T08:06:05.294Z,15
2018-09-13T08:07:05.869Z,15
2018-09-13T08:08:06.448Z,15
2018-09-13T08:09:07.027Z,15
2018-09-13T08:10:07.603Z,15
2018-09-13T08:11:08.182Z,15
2018-09-13T08:12:08.886Z,15
2018-09-13T08:13:09.340Z,15
2018-09-13T08:14:09.918Z,15
2018-09-13T08:15:10.496Z,15
2018-09-13T08:16:11.080Z,15
2018-09-13T08:17:11.654Z,15
2018-09-13T08:18:12.234Z,15
2018-09-13T08:19:12.811Z,15
2018-09-13T08:20:13.388Z,15
2018-09-13T08:21:13.985Z,15
2018-09-13T08:22:14.562Z,15
2018-09-13T08:23:15.136Z,15
2018-09-13T08:24:15.713Z,15
2018-09-13T08:25:16.290Z,10
2018-09-13T08:26:16.873Z,10
2018-09-13T08:27:17.506Z,10
2018-09-13T08:28:18.022Z,15
2018-09-13T08:29:18.600Z,15
2018-09-13T08:30:19.176Z,15
2018-09-13T08:31:19.752Z,15
2018-09-13T08:32:20.328Z,15
2018-09-13T08:33:20.959Z,15
2018-09-13T08:34:21.483Z,15
2018-09-13T08:35:22.060Z,15
2018-09-13T08:36:22.634Z,15
2018-09-13T08:37:23.247Z,20
2018-09-13T08:38:23.791Z,20
2018-09-13T08:39:24.376Z,20
2018-09-13T08:40:25.005Z,20
2018-09-13T08:41:25.538Z,20
2018-09-13T08:42:26.115Z,20
2018-09-13T08:43:26.690Z,20
2018-09-13T08:44:27.268Z,20
2018-09-13T08:45:27.847Z,15
2018-09-13T08:46:28.425Z,20
2018-09-13T08:47:29.017Z,15
2018-09-13T08:48:29.599Z,20
2018-09-13T08:49:30.180Z,20
2018-09-13T08:50:30.757Z,15
2018-09-13T08:51:31.338Z,20
2018-09-13T08:52:31.932Z,20
2018-09-13T08:53:32.601Z,20
2018-09-13T08:54:33.088Z,20
2018-09-13T08:55:33.667Z,20
2018-09-13T08:56:34.245Z,20
2018-09-13T08:57:34.840Z,20
2018-09-13T08:58:35.418Z,20
2018-09-13T08:59:35.996Z,20
2018-09-13T09:00:36.632Z,25
2018-09-13T09:01:37.155Z,25
2018-09-13T09:02:37.733Z,25
2018-09-13T09:03:38.319Z,25
2018-09-13T09:04:38.904Z,20
2018-09-13T09:05:39.483Z,20
2018-09-13T09:06:40.061Z,20
2018-09-13T09:07:40.641Z,20
2018-09-13T09:08:41.220Z,15
2018-09-13T09:09:41.799Z,15
2018-09-13T09:10:42.380Z,15
2018-09-13T09:11:43.012Z,20
2018-09-13T09:12:43.538Z,20
2018-09-13T09:13:44.117Z,20
2018-09-13T09:14:44.698Z,20
2018-09-13T09:15:45.276Z,20
2018-09-13T09:16:45.858Z,20
2018-09-13T09:17:46.448Z,20
2018-09-13T09:18:47.027Z,20
2018-09-13T09:19:47.607Z,20
2018-09-13T09:20:48.186Z,20
2018-09-13T09:21:48.766Z,20
2018-09-13T09:22:49.345Z,20
2018-09-13T09:23:49.925Z,20
2018-09-13T09:24:50.504Z,20
2018-09-13T09:25:51.084Z,25
2018-09-13T09:26:51.664Z,25
2018-09-13T09:27:52.240Z,25
2018-09-13T09:28:52.854Z,25
2018-09-13T09:29:53.421Z,25
2018-09-13T09:30:53.975Z,25
2018-09-13T09:31:54.555Z,25
2018-09-13T09:32:55.148Z,30
2018-09-13T09:33:55.728Z,30
2018-09-13T09:34:56.318Z,30
2018-09-13T09:35:56.887Z,25
2018-09-13T09:36:57.466Z,35
2018-09-13T09:37:58.045Z,30
2018-09-13T09:38:58.626Z,30
2018-09-13T09:39:59.243Z,30
2018-09-13T09:40:59.793Z,30
2018-09-13T09:42:00.375Z,35
2018-09-13T09:43:00.965Z,30
2018-09-13T09:44:01.591Z,30
2018-09-13T09:45:02.124Z,30
2018-09-13T09:46:02.721Z,30
2018-09-13T09:47:03.296Z,30
2018-09-13T09:48:03.916Z,30
2018-09-13T09:49:04.456Z,30
2018-09-13T09:50:05.041Z,30
2018-09-13T09:51:05.617Z,30
2018-09-13T09:52:06.259Z,30
2018-09-13T09:53:06.774Z,30
2018-09-13T09:54:07.355Z,30
2018-09-13T09:55:07.935Z,25
2018-09-13T09:56:08.520Z,25
2018-09-13T09:57:09.096Z,25
2018-09-13T09:58:09.676Z,30
2018-09-13T09:59:10.255Z,25
2018-09-13T10:00:10.835Z,25
2018-09-13T10:01:11.418Z,25
2018-09-13T10:02:11.994Z,25
2018-09-13T10:03:12.575Z,25
2018-09-13T10:04:13.206Z,25
2018-09-13T10:05:13.737Z,25
2018-09-13T10:06:14.329Z,25
2018-09-13T10:07:14.910Z,25
2018-09-13T10:08:15.489Z,25
2018-09-13T10:09:16.084Z,25
2018-09-13T10:10:16.663Z,25
2018-09-13T10:11:17.244Z,25
2018-09-13T10:12:17.823Z,25
2018-09-13T10:13:18.417Z,25
2018-09-13T10:14:18.999Z,25
2018-09-13T10:15:19.578Z,25
2018-09-13T10:16:20.245Z,25
2018-09-13T10:17:20.738Z,25
2018-09-13T10:18:21.318Z,25
2018-09-13T10:19:21.912Z,25
2018-09-13T10:20:22.493Z,25
2018-09-13T10:21:23.088Z,30
2018-09-13T10:22:23.669Z,30
2018-09-13T10:23:24.253Z,30
2018-09-13T10:24:24.843Z,30
2018-09-13T10:25:25.424Z,30
2018-09-13T10:26:26.004Z,30
2018-09-13T10:27:26.585Z,30
2018-09-13T10:28:27.167Z,30
2018-09-13T10:29:27.917Z,30
2018-09-13T10:30:28.326Z,30
2018-09-13T10:31:28.906Z,30
2018-09-13T10:32:29.499Z,30
2018-09-13T10:33:30.087Z,30
2018-09-13T10:34:30.661Z,30
2018-09-13T10:35:31.255Z,30
2018-09-13T10:36:31.835Z,25
2018-09-13T10:37:32.415Z,25
2018-09-13T10:38:32.996Z,25
2018-09-13T10:39:33.577Z,25
2018-09-13T10:40:34.172Z,30
2018-09-13T10:41:34.806Z,30
2018-09-13T10:42:35.320Z,30
2018-09-13T10:43:35.898Z,30
2018-09-13T10:44:36.479Z,30
2018-09-13T10:45:37.061Z,30
2018-09-13T10:46:37.641Z,30
2018-09-13T10:47:42.163Z,35
2018-09-13T10:48:38.802Z,30
2018-09-13T10:49:39.382Z,40
2018-09-13T10:50:39.963Z,30
2018-09-13T10:51:40.544Z,30
2018-09-13T10:52:41.275Z,30
2018-09-13T10:53:41.720Z,25
2018-09-13T10:54:42.327Z,25
2018-09-13T10:55:43.120Z,25
2018-09-13T10:56:43.490Z,25
2018-09-13T10:57:44.070Z,25
2018-09-13T10:58:44.652Z,25
2018-09-13T10:59:45.233Z,20
2018-09-13T11:00:45.814Z,20
2018-09-13T11:01:46.394Z,20
2018-09-13T11:02:46.974Z,20
2018-09-13T11:03:47.555Z,20
2018-09-13T11:04:48.135Z,20
2018-09-13T11:05:48.719Z,20
2018-09-13T11:06:49.312Z,25
2018-09-13T11:07:49.891Z,25
2018-09-13T11:08:50.471Z,30
2018-09-13T11:09:51.053Z,30
2018-09-13T11:10:51.825Z,35
2018-09-13T11:11:52.212Z,35
2018-09-13T11:12:52.794Z,30
2018-09-13T11:13:53.372Z,35
2018-09-13T11:14:53.952Z,35
2018-09-13T11:15:54.535Z,35
2018-09-13T11:16:55.114Z,30
2018-09-13T11:17:55.695Z,30
2018-09-13T11:18:56.276Z,30
2018-09-13T11:19:56.856Z,30
2018-09-13T11:20:57.437Z,25
2018-09-13T11:21:58.023Z,25
2018-09-13T11:22:58.613Z,25
2018-09-13T11:23:59.195Z,20
2018-09-13T11:24:59.775Z,20
2018-09-13T11:26:00.357Z,20
2018-09-13T11:27:00.939Z,20
2018-09-13T11:28:01.519Z,20
2018-09-13T11:29:02.103Z,25
2018-09-13T11:30:02.682Z,35
2018-09-13T11:31:03.262Z,35
2018-09-13T11:32:03.841Z,40
2018-09-13T11:33:04.423Z,40
2018-09-13T11:34:05.010Z,40
2018-09-13T11:35:05.594Z,40
2018-09-13T11:36:06.180Z,40
2018-09-13T11:37:06.762Z,45
2018-09-13T11:38:07.345Z,45
2018-09-13T11:39:07.926Z,40
2018-09-13T11:40:08.542Z,40
2018-09-13T11:41:09.173Z,40
2018-09-13T11:42:09.671Z,40
2018-09-13T11:43:10.252Z,30
2018-09-13T11:44:10.834Z,30
2018-09-13T11:45:11.414Z,30
2018-09-13T11:46:11.996Z,30
2018-09-13T11:47:12.591Z,30
2018-09-13T11:48:13.171Z,25
2018-09-13T11:49:13.755Z,25
2018-09-13T11:50:14.350Z,25
2018-09-13T11:51:14.931Z,20
2018-09-13T11:52:15.512Z,20
2018-09-13T11:53:16.094Z,20
2018-09-13T11:54:16.676Z,20
2018-09-13T11:55:17.257Z,20
2018-09-13T11:56:17.837Z,20
2018-09-13T11:57:18.417Z,20
2018-09-13T11:58:19.000Z,20
2018-09-13T11:59:19.581Z,20
2018-09-13T12:00:20.166Z,20
2018-09-13T12:01:20.804Z,20
2018-09-13T12:02:21.335Z,20
2018-09-13T12:03:21.927Z,20
2018-09-13T12:04:22.509Z,20
2018-09-13T12:05:23.089Z,20
2018-09-13T12:06:23.670Z,20
2018-09-13T12:07:24.250Z,20
2018-09-13T12:08:24.835Z,25
2018-09-13T12:09:25.436Z,25
2018-09-13T12:10:25.993Z,25
2018-09-13T12:11:26.592Z,25
2018-09-13T12:12:27.170Z,20
2018-09-13T12:13:27.751Z,20
2018-09-13T12:14:28.332Z,20
2018-09-13T12:15:28.914Z,20
2018-09-13T12:16:29.495Z,25
2018-09-13T12:17:30.075Z,20
2018-09-13T12:18:30.677Z,25
2018-09-13T12:19:31.239Z,30
2018-09-13T12:20:31.819Z,30
2018-09-13T12:21:32.399Z,40
2018-09-13T12:22:33.005Z,35
2018-09-13T12:23:33.564Z,35
2018-09-13T12:24:34.158Z,35
2018-09-13T12:25:34.740Z,35
2018-09-13T12:26:35.321Z,35
2018-09-13T12:27:35.979Z,35
2018-09-13T12:28:36.484Z,35
2018-09-13T12:29:37.065Z,35
2018-09-13T12:30:37.646Z,35
2018-09-13T12:31:38.227Z,40
2018-09-13T12:32:38.873Z,40
2018-09-13T12:33:39.451Z,40
2018-09-13T12:34:39.995Z,40
2018-09-13T12:35:40.579Z,45
2018-09-13T12:36:41.160Z,45
2018-09-13T12:37:41.744Z,45
2018-09-13T12:38:42.326Z,40
2018-09-13T12:39:42.906Z,40
2018-09-13T12:40:43.492Z,40
2018-09-13T12:41:44.072Z,40
2018-09-13T12:42:44.654Z,40
2018-09-13T12:43:45.235Z,40
2018-09-13T12:44:45.817Z,40
2018-09-13T12:45:46.412Z,40
2018-09-13T12:46:46.996Z,35
2018-09-13T12:47:47.576Z,25
2018-09-13T12:48:48.159Z,25
2018-09-13T12:49:48.749Z,20
2018-09-13T12:50:49.324Z,20
2018-09-13T12:51:49.905Z,20
2018-09-13T12:52:50.487Z,20
2018-09-13T12:53:51.069Z,20
2018-09-13T12:54:51.653Z,20
2018-09-13T12:55:52.232Z,20
2018-09-13T12:56:52.878Z,20
2018-09-13T12:57:53.421Z,20
2018-09-13T12:58:54.003Z,20
2018-09-13T12:59:54.584Z,20
2018-09-13T13:00:55.166Z,25
2018-09-13T13:01:55.748Z,20
2018-09-13T13:02:56.329Z,35
2018-09-13T13:03:56.910Z,20
2018-09-13T13:04:57.493Z,40
2018-09-13T13:05:58.074Z,40
2018-09-13T13:06:58.656Z,40
2018-09-13T13:07:59.237Z,35
2018-09-13T13:08:59.820Z,35
2018-09-13T13:10:00.401Z,40
2018-09-13T13:11:00.985Z,40
2018-09-13T13:12:01.566Z,30
2018-09-13T13:13:02.147Z,30
2018-09-13T13:14:02.729Z,30
2018-09-13T13:15:03.316Z,30
2018-09-13T13:16:03.895Z,35
2018-09-13T13:17:04.489Z,30
2018-09-13T13:18:05.072Z,30
2018-09-13T13:19:05.651Z,40
2018-09-13T13:20:06.232Z,35
2018-09-13T13:21:06.814Z,25
2018-09-13T13:22:07.395Z,20
2018-09-13T13:23:07.978Z,20
2018-09-13T13:24:08.559Z,20
2018-09-13T13:25:09.140Z,20
2018-09-13T13:26:09.723Z,20
2018-09-13T13:27:10.314Z,20
2018-09-13T13:28:10.886Z,20
2018-09-13T13:29:11.469Z,20
2018-09-13T13:30:12.066Z,20
2018-09-13T13:31:12.647Z,20
2018-09-13T13:32:13.228Z,20
2018-09-13T13:33:13.810Z,20
2018-09-13T13:34:14.406Z,20
2018-09-13T13:35:14.988Z,25
2018-09-13T13:36:15.626Z,25
2018-09-13T13:37:16.151Z,25
2018-09-13T13:38:16.735Z,25
2018-09-13T13:39:17.315Z,25
2018-09-13T13:40:17.910Z,30
2018-09-13T13:41:18.539Z,30
2018-09-13T13:42:19.093Z,40
2018-09-13T13:43:19.677Z,40
2018-09-13T13:44:20.268Z,40
2018-09-13T13:45:20.849Z,40
2018-09-13T13:46:21.430Z,25
2018-09-13T13:47:22.013Z,30
2018-09-13T13:48:22.596Z,40
2018-09-13T13:49:23.211Z,25
2018-09-13T13:50:23.755Z,25
2018-09-13T13:51:24.337Z,25
2018-09-13T13:52:24.916Z,25
2018-09-13T13:53:25.498Z,25
2018-09-13T13:54:26.077Z,25
2018-09-13T13:55:26.658Z,25
2018-09-13T13:56:27.238Z,25
2018-09-13T13:57:27.818Z,25
2018-09-13T13:58:28.401Z,25
2018-09-13T13:59:28.981Z,35
2018-09-13T14:00:29.565Z,25
2018-09-13T14:01:30.145Z,35
2018-09-13T14:02:30.726Z,35
2018-09-13T14:03:31.309Z,30
2018-09-13T14:04:31.892Z,35
2018-09-13T14:05:32.474Z,35
2018-09-13T14:06:33.070Z,25
2018-09-13T14:07:33.652Z,25
2018-09-13T14:08:34.233Z,25
2018-09-13T14:09:34.859Z,25
2018-09-13T14:10:35.398Z,25
2018-09-13T14:11:35.992Z,25
2018-09-13T14:12:36.573Z,35
2018-09-13T14:13:37.157Z,35
2018-09-13T14:14:37.737Z,30
2018-09-13T14:15:38.319Z,40
2018-09-13T14:16:38.906Z,40
2018-09-13T14:17:39.483Z,30
2018-09-13T14:18:40.079Z,25
2018-09-13T14:19:40.675Z,20
2018-09-13T14:20:41.368Z,20
2018-09-13T14:21:41.838Z,20
2018-09-13T14:22:42.420Z,20
2018-09-13T14:23:43.001Z,20
2018-09-13T14:24:43.584Z,20
2018-09-13T14:25:44.165Z,20
2018-09-13T14:26:44.745Z,20
2018-09-13T14:27:45.328Z,20
2018-09-13T14:28:45.909Z,20
2018-09-13T14:29:46.548Z,30
2018-09-13T14:30:47.073Z,20
2018-09-13T14:31:47.656Z,20
2018-09-13T14:32:48.236Z,20
2018-09-13T14:33:48.819Z,20
2018-09-13T14:34:49.399Z,15
2018-09-13T14:35:49.981Z,15
2018-09-13T14:36:50.563Z,15
2018-09-13T14:37:51.158Z,15
2018-09-13T14:38:51.741Z,15
2018-09-13T14:39:52.372Z,15
2018-09-13T14:40:52.905Z,15
2018-09-13T14:41:53.486Z,15
2018-09-13T14:42:54.067Z,15
2018-09-13T14:43:54.663Z,15
2018-09-13T14:44:55.244Z,15
2018-09-13T14:45:55.877Z,20
2018-09-13T14:46:56.408Z,20
2018-09-13T14:47:56.989Z,20
2018-09-13T14:48:57.585Z,20
2018-09-13T14:49:58.167Z,20
2018-09-13T14:50:58.748Z,20
2018-09-13T14:51:59.329Z,20
2018-09-13T14:52:59.923Z,20
2018-09-13T14:54:00.503Z,25
2018-09-13T14:55:01.088Z,25
2018-09-13T14:56:01.678Z,25
2018-09-13T14:57:02.248Z,25
2018-09-13T14:58:02.832Z,40
2018-09-13T14:59:03.432Z,40
2018-09-13T15:00:04.011Z,50
2018-09-13T15:01:04.595Z,60
2018-09-13T15:02:05.176Z,60
2018-09-13T15:03:05.760Z,65
2018-09-13T15:04:06.342Z,65
2018-09-13T15:05:06.928Z,70
2018-09-13T15:06:07.521Z,75
2018-09-13T15:07:08.151Z,80
2018-09-13T15:08:08.687Z,85
2018-09-13T15:09:09.271Z,90
2018-09-13T15:10:09.852Z,90
2018-09-13T15:11:10.436Z,95
2018-09-13T15:12:11.019Z,105
2018-09-13T15:13:11.622Z,110
2018-09-13T15:14:12.216Z,115
2018-09-13T15:15:12.798Z,120
2018-09-13T15:16:13.381Z,120
2018-09-13T15:17:13.968Z,125
2018-09-13T15:18:14.553Z,130
2018-09-13T15:19:15.136Z,130
2018-09-13T15:20:15.719Z,130
2018-09-13T15:21:16.305Z,130
2018-09-13T15:22:16.887Z,115
2018-09-13T15:23:17.470Z,25
2018-09-13T15:24:18.113Z,20
2018-09-13T15:25:18.635Z,20
2018-09-13T15:26:19.218Z,20
2018-09-13T15:27:19.799Z,20
2018-09-13T15:28:20.381Z,20
2018-09-13T15:29:20.963Z,20
2018-09-13T15:30:21.547Z,20
2018-09-13T15:31:22.209Z,20
2018-09-13T15:32:22.725Z,20
2018-09-13T15:33:23.308Z,20
2018-09-13T15:34:23.892Z,20
2018-09-13T15:35:24.473Z,20
2018-09-13T15:36:25.054Z,20
2018-09-13T15:37:25.637Z,20
2018-09-13T15:38:26.220Z,20
2018-09-13T15:39:26.800Z,20
2018-09-13T15:40:27.385Z,20
2018-09-13T15:41:27.980Z,20
2018-09-13T15:42:28.562Z,20
2018-09-13T15:43:29.144Z,20
2018-09-13T15:44:29.726Z,25
2018-09-13T15:45:30.354Z,35
2018-09-13T15:46:30.889Z,25
2018-09-13T15:47:31.471Z,25
2018-09-13T15:48:32.054Z,30
2018-09-13T15:49:32.638Z,25
2018-09-13T15:50:33.233Z,25
2018-09-13T15:51:33.816Z,25
2018-09-13T15:52:34.399Z,30
2018-09-13T15:53:34.982Z,25
2018-09-13T15:54:35.563Z,40
2018-09-13T15:55:36.169Z,25
2018-09-13T15:56:36.743Z,25
2018-09-13T15:57:37.322Z,20
2018-09-13T15:58:37.906Z,20
2018-09-13T15:59:38.492Z,20
2018-09-13T16:00:39.084Z,15
2018-09-13T16:01:39.664Z,15
2018-09-13T16:02:40.246Z,15
2018-09-13T16:03:40.828Z,15
2018-09-13T16:04:41.409Z,15
2018-09-13T16:05:41.992Z,15
2018-09-13T16:06:42.572Z,15
2018-09-13T16:07:43.154Z,15
2018-09-13T16:08:43.737Z,20
2018-09-13T16:09:44.318Z,15
2018-09-13T16:10:44.901Z,20
2018-09-13T16:11:45.497Z,20
2018-09-13T16:12:46.144Z,60
2018-09-13T16:13:46.663Z,20
2018-09-13T16:14:47.247Z,15
2018-09-13T16:15:47.827Z,15
2018-09-13T16:16:48.407Z,15
2018-09-13T16:17:48.989Z,15
2018-09-13T16:18:49.570Z,15
2018-09-13T16:19:50.192Z,15
2018-09-13T16:20:50.763Z,10
2018-09-13T16:21:51.336Z,10
2018-09-13T16:22:51.917Z,10
2018-09-13T16:23:52.500Z,10
2018-09-13T16:24:53.081Z,10
2018-09-13T16:25:53.687Z,10
2018-09-13T16:26:54.258Z,10
2018-09-13T16:27:54.841Z,10
2018-09-13T16:28:55.424Z,10
2018-09-13T16:29:56.006Z,10
2018-09-13T16:30:56.592Z,10
2018-09-13T16:31:57.183Z,10
2018-09-13T16:32:57.765Z,10
2018-09-13T16:33:58.359Z,10
2018-09-13T16:34:59.004Z,10
2018-09-13T16:35:59.517Z,10
2018-09-13T16:37:00.153Z,10
2018-09-13T16:38:00.680Z,10
2018-09-13T16:39:01.268Z,10
2018-09-13T16:40:01.859Z,15
2018-09-13T16:41:02.455Z,15
2018-09-13T16:42:03.037Z,15
2018-09-13T16:43:03.620Z,15
2018-09-13T16:44:04.202Z,20
2018-09-13T16:45:04.783Z,45
2018-09-13T16:46:05.366Z,45
2018-09-13T16:47:05.967Z,20
2018-09-13T16:48:06.544Z,15
2018-09-13T16:49:07.125Z,15
2018-09-13T16:50:07.708Z,15
2018-09-13T16:51:08.291Z,15
2018-09-13T16:52:08.886Z,15
2018-09-13T16:53:09.507Z,15
2018-09-13T16:54:10.050Z,15
2018-09-13T16:55:10.633Z,20
2018-09-13T16:56:11.213Z,15
2018-09-13T16:57:11.795Z,15
2018-09-13T16:58:12.378Z,15
2018-09-13T16:59:12.959Z,15
2018-09-13T17:00:13.540Z,25
2018-09-13T17:01:14.128Z,55
2018-09-13T17:02:14.705Z,65
2018-09-13T17:03:15.288Z,60
2018-09-13T17:04:15.869Z,25
2018-09-13T17:05:16.466Z,35
2018-09-13T17:06:17.062Z,55
2018-09-13T17:07:17.648Z,50
2018-09-13T17:08:18.229Z,50
2018-09-13T17:09:18.813Z,50
2018-09-13T17:10:19.397Z,50
2018-09-13T17:11:19.981Z,40
2018-09-13T17:12:20.564Z,30
2018-09-13T17:13:21.160Z,25
2018-09-13T17:14:21.741Z,20
2018-09-13T17:15:22.325Z,15
2018-09-13T17:16:22.907Z,15
2018-09-13T17:17:23.493Z,15
2018-09-13T17:18:24.086Z,15
2018-09-13T17:19:24.667Z,15
2018-09-13T17:20:25.261Z,10
2018-09-13T17:21:25.845Z,10
2018-09-13T17:22:26.425Z,15
2018-09-13T17:23:27.022Z,15
2018-09-13T17:24:27.602Z,10
2018-09-13T17:25:28.184Z,5
2018-09-13T17:26:28.764Z,5
2018-09-13T17:27:29.361Z,5
2018-09-13T17:28:29.943Z,5
2018-09-13T17:29:30.526Z,5
2018-09-13T17:30:31.104Z,5
2018-09-13T17:31:31.683Z,5
2018-09-13T17:32:32.267Z,5
2018-09-13T17:33:32.850Z,5
2018-09-13T17:34:33.426Z,5
2018-09-13T17:35:34.007Z,5
2018-09-13T17:36:34.584Z,0
2018-09-13T17:37:35.162Z,0
2018-09-13T17:38:35.743Z,0
2018-09-13T17:39:36.322Z,0
2018-09-13T17:40:36.899Z,0
2018-09-13T17:41:37.478Z,0
2018-09-13T17:42:38.058Z,0
2018-09-13T17:43:38.647Z,0
2018-09-13T17:44:39.217Z,0
2018-09-13T17:45:39.795Z,0
2018-09-13T17:46:40.376Z,0
2018-09-13T17:47:40.955Z,0
2018-09-13T17:48:41.534Z,0
2018-09-13T17:49:42.156Z,0
2018-09-13T17:50:42.710Z,0
2018-09-13T17:51:43.301Z,0
2018-09-13T17:52:43.879Z,0
2018-09-13T17:53:44.457Z,0
2018-09-13T17:54:45.037Z,0
2018-09-13T17:55:45.668Z,0
2018-09-13T17:56:46.193Z,0
2018-09-13T17:57:46.772Z,0
2018-09-13T17:58:47.351Z,0
2018-09-13T17:59:47.929Z,0
2018-09-13T18:00:48.507Z,0
2018-09-13T18:01:49.084Z,0
2018-09-13T18:02:49.663Z,0
2018-09-13T18:03:50.239Z,0
2018-09-13T18:04:50.816Z,0
2018-09-13T18:05:51.393Z,0
2018-09-13T18:06:51.983Z,0
2018-09-13T18:07:52.573Z,0
2018-09-13T18:08:53.150Z,0
2018-09-13T18:09:53.729Z,0
2018-09-13T18:10:54.306Z,0
2018-09-13T18:11:54.885Z,0
2018-09-13T18:12:55.460Z,0
2018-09-13T18:13:56.045Z,0
2018-09-13T18:14:56.615Z,0
2018-09-13T18:15:57.208Z,0
2018-09-13T18:16:57.783Z,0
2018-09-13T18:17:58.361Z,0
2018-09-13T18:18:58.951Z,0
2018-09-13T18:19:59.531Z,0
2018-09-13T18:21:00.118Z,0
2018-09-13T18:22:00.695Z,0
2018-09-13T18:23:01.271Z,0
2018-09-13T18:24:01.882Z,0
2018-09-13T18:25:02.427Z,0
2018-09-13T18:26:03.003Z,0
2018-09-13T18:27:03.579Z,0
2018-09-13T18:28:04.157Z,0
2018-09-13T18:29:04.749Z,0
2018-09-13T18:30:05.327Z,0
2018-09-13T18:31:05.905Z,0
2018-09-13T18:32:06.481Z,0
2018-09-13T18:33:07.058Z,0
2018-09-13T18:34:07.634Z,0
2018-09-13T18:35:08.211Z,0
2018-09-13T18:36:08.787Z,0
2018-09-13T18:37:09.363Z,0
2018-09-13T18:38:09.956Z,0
2018-09-13T18:39:10.529Z,0
2018-09-13T18:40:11.112Z,0
2018-09-13T18:41:11.683Z,0
2018-09-13T18:42:12.295Z,0
2018-09-13T18:43:12.836Z,0
2018-09-13T18:44:13.426Z,0
2018-09-13T18:45:14.049Z,0
2018-09-13T18:46:14.580Z,0
2018-09-13T18:47:15.154Z,0
2018-09-13T18:48:15.731Z,0
2018-09-13T18:49:16.314Z,0
2018-09-13T18:50:16.898Z,0
2018-09-13T18:51:17.474Z,0
2018-09-13T18:52:18.052Z,0
2018-09-13T18:53:18.627Z,0
2018-09-13T18:54:19.329Z,0
2018-09-13T18:55:19.780Z,0